sensor_id;sensor_type;location;lat;lon;timestamp;temperature;humidity
5476;DHT22;2760;50.000;9.194;2022-08-19T00:01:32;20.40;99.90
5476;DHT22;2760;50.000;9.194;2022-08-19T00:04:03;20.50;99.90
5476;DHT22;2760;50.000;9.194;2022-08-19T00:06:30;20.40;99.90
5476;DHT22;2760;50.000;9.194;2022-08-19T00:08:58;20.50;99.90
5476;DHT22;2760;50.000;9.194;2022-08-19T00:11:26;20.60;99.90
5476;DHT22;2760;50.000;9.194;2022-08-19T00:13:53;20.60;99.90
5476;DHT22;2760;50.000;9.194;2022-08-19T00:16:20;20.60;99.90
5476;DHT22;2760;50.000;9.194;2022-08-19T00:18:48;20.50;99.90
5476;DHT22;2760;50.000;9.194;2022-08-19T00:21:16;20.60;99.90
5476;DHT22;2760;50.000;9.194;2022-08-19T00:23:43;20.50;99.90
5476;DHT22;2760;50.000;9.194;2022-08-19T00:26:11;20.40;99.90
5476;DHT22;2760;50.000;9.194;2022-08-19T00:28:38;20.50;99.90
5476;DHT22;2760;50.000;9.194;2022-08-19T00:31:06;20.60;99.90
5476;DHT22;2760;50.000;9.194;2022-08-19T00:33:33;20.60;99.90
5476;DHT22;2760;50.000;9.194;2022-08-19T00:36:01;20.60;99.90
5476;DHT22;2760;50.000;9.194;2022-08-19T00:38:31;20.50;99.90
5476;DHT22;2760;50.000;9.194;2022-08-19T00:40:59;20.50;99.90
5476;DHT22;2760;50.000;9.194;2022-08-19T00:43:27;20.50;99.90
5476;DHT22;2760;50.000;9.194;2022-08-19T00:45:55;20.60;99.90
5476;DHT22;2760;50.000;9.194;2022-08-19T00:48:22;20.70;99.90
5476;DHT22;2760;50.000;9.194;2022-08-19T00:50:51;20.60;99.90
5476;DHT22;2760;50.000;9.194;2022-08-19T00:53:21;20.60;99.90
5476;DHT22;2760;50.000;9.194;2022-08-19T00:55:51;20.50;99.90
5476;DHT22;2760;50.000;9.194;2022-08-19T00:58:21;20.40;99.90
5476;DHT22;2760;50.000;9.194;2022-08-19T01:00:48;20.50;99.90
5476;DHT22;2760;50.000;9.194;2022-08-19T01:03:18;20.40;99.90
5476;DHT22;2760;50.000;9.194;2022-08-19T01:05:47;20.50;99.90
5476;DHT22;2760;50.000;9.194;2022-08-19T01:08:18;20.60;99.90
5476;DHT22;2760;50.000;9.194;2022-08-19T01:10:48;20.50;99.90
5476;DHT22;2760;50.000;9.194;2022-08-19T01:13:20;20.50;99.90
5476;DHT22;2760;50.000;9.194;2022-08-19T01:15:50;20.50;99.90
5476;DHT22;2760;50.000;9.194;2022-08-19T01:18:19;20.60;99.90
5476;DHT22;2760;50.000;9.194;2022-08-19T01:20:47;20.60;99.90
5476;DHT22;2760;50.000;9.194;2022-08-19T01:23:16;20.50;99.90
5476;DHT22;2760;50.000;9.194;2022-08-19T01:25:46;20.40;99.90
5476;DHT22;2760;50.000;9.194;2022-08-19T01:28:17;20.40;99.90
5476;DHT22;2760;50.000;9.194;2022-08-19T01:30:45;20.40;99.90
5476;DHT22;2760;50.000;9.194;2022-08-19T01:33:13;20.30;99.90
5476;DHT22;2760;50.000;9.194;2022-08-19T01:35:41;20.40;99.90
5476;DHT22;2760;50.000;9.194;2022-08-19T01:38:18;20.40;99.90
5476;DHT22;2760;50.000;9.194;2022-08-19T01:40:48;20.40;99.90
5476;DHT22;2760;50.000;9.194;2022-08-19T01:43:16;20.50;99.90
5476;DHT22;2760;50.000;9.194;2022-08-19T01:45:44;20.60;99.90
5476;DHT22;2760;50.000;9.194;2022-08-19T01:48:12;20.60;99.90
5476;DHT22;2760;50.000;9.194;2022-08-19T01:50:39;20.70;99.90
5476;DHT22;2760;50.000;9.194;2022-08-19T01:53:10;21.10;99.90
5476;DHT22;2760;50.000;9.194;2022-08-19T01:55:40;20.40;99.90
5476;DHT22;2760;50.000;9.194;2022-08-19T01:58:12;20.60;99.90
5476;DHT22;2760;50.000;9.194;2022-08-19T02:00:39;20.50;99.90
5476;DHT22;2760;50.000;9.194;2022-08-19T02:03:06;20.50;99.90
5476;DHT22;2760;50.000;9.194;2022-08-19T02:05:34;20.60;99.90
5476;DHT22;2760;50.000;9.194;2022-08-19T02:08:01;20.10;99.90
5476;DHT22;2760;50.000;9.194;2022-08-19T02:10:28;20.60;99.90
5476;DHT22;2760;50.000;9.194;2022-08-19T02:12:55;20.40;99.90
5476;DHT22;2760;50.000;9.194;2022-08-19T02:15:24;20.30;99.90
5476;DHT22;2760;50.000;9.194;2022-08-19T02:17:51;20.30;99.90
5476;DHT22;2760;50.000;9.194;2022-08-19T02:20:18;20.20;99.90
5476;DHT22;2760;50.000;9.194;2022-08-19T02:22:45;20.20;99.90
5476;DHT22;2760;50.000;9.194;2022-08-19T02:25:13;20.20;99.90
5476;DHT22;2760;50.000;9.194;2022-08-19T02:27:41;20.30;99.90
5476;DHT22;2760;50.000;9.194;2022-08-19T02:30:17;20.30;99.90
5476;DHT22;2760;50.000;9.194;2022-08-19T02:32:46;20.20;99.90
5476;DHT22;2760;50.000;9.194;2022-08-19T02:35:13;20.20;99.90
5476;DHT22;2760;50.000;9.194;2022-08-19T02:37:40;20.30;99.90
5476;DHT22;2760;50.000;9.194;2022-08-19T02:40:25;20.30;99.90
5476;DHT22;2760;50.000;9.194;2022-08-19T02:42:52;19.40;99.90
5476;DHT22;2760;50.000;9.194;2022-08-19T02:45:19;20.40;99.90
5476;DHT22;2760;50.000;9.194;2022-08-19T02:47:48;20.30;99.90
5476;DHT22;2760;50.000;9.194;2022-08-19T02:50:15;20.30;99.90
5476;DHT22;2760;50.000;9.194;2022-08-19T02:52:42;20.30;99.90
5476;DHT22;2760;50.000;9.194;2022-08-19T02:55:09;20.30;99.90
5476;DHT22;2760;50.000;9.194;2022-08-19T02:57:36;20.30;99.90
5476;DHT22;2760;50.000;9.194;2022-08-19T03:00:04;20.30;99.90
5476;DHT22;2760;50.000;9.194;2022-08-19T03:02:32;20.40;99.90
5476;DHT22;2760;50.000;9.194;2022-08-19T03:05:02;20.40;99.90
5476;DHT22;2760;50.000;9.194;2022-08-19T03:07:29;20.30;99.90
5476;DHT22;2760;50.000;9.194;2022-08-19T03:09:56;20.40;99.90
5476;DHT22;2760;50.000;9.194;2022-08-19T03:12:23;20.40;99.90
5476;DHT22;2760;50.000;9.194;2022-08-19T03:14:50;20.50;99.90
5476;DHT22;2760;50.000;9.194;2022-08-19T03:17:18;20.50;99.90
5476;DHT22;2760;50.000;9.194;2022-08-19T03:19:46;20.70;99.90
5476;DHT22;2760;50.000;9.194;2022-08-19T03:22:14;20.60;99.90
5476;DHT22;2760;50.000;9.194;2022-08-19T03:24:43;20.50;99.90
5476;DHT22;2760;50.000;9.194;2022-08-19T03:27:10;20.50;99.90
5476;DHT22;2760;50.000;9.194;2022-08-19T03:29:38;20.50;99.90
5476;DHT22;2760;50.000;9.194;2022-08-19T03:32:05;20.50;99.90
5476;DHT22;2760;50.000;9.194;2022-08-19T03:34:35;20.50;99.90
5476;DHT22;2760;50.000;9.194;2022-08-19T03:37:05;20.30;99.90
5476;DHT22;2760;50.000;9.194;2022-08-19T03:39:36;20.40;99.90
5476;DHT22;2760;50.000;9.194;2022-08-19T03:42:04;20.50;99.90
5476;DHT22;2760;50.000;9.194;2022-08-19T03:44:32;20.50;99.90
5476;DHT22;2760;50.000;9.194;2022-08-19T03:46:59;20.50;99.90
5476;DHT22;2760;50.000;9.194;2022-08-19T03:49:29;20.60;99.90
5476;DHT22;2760;50.000;9.194;2022-08-19T03:51:57;20.70;99.90
5476;DHT22;2760;50.000;9.194;2022-08-19T03:54:26;20.30;99.90
5476;DHT22;2760;50.000;9.194;2022-08-19T03:56:55;20.30;99.90
5476;DHT22;2760;50.000;9.194;2022-08-19T03:59:24;20.20;99.90
5476;DHT22;2760;50.000;9.194;2022-08-19T04:01:52;20.10;99.90
5476;DHT22;2760;50.000;9.194;2022-08-19T04:04:19;20.20;99.90
5476;DHT22;2760;50.000;9.194;2022-08-19T04:06:47;20.20;99.90
5476;DHT22;2760;50.000;9.194;2022-08-19T04:09:15;20.20;99.90
5476;DHT22;2760;50.000;9.194;2022-08-19T04:11:44;20.20;99.90
5476;DHT22;2760;50.000;9.194;2022-08-19T04:14:17;19.70;99.90
5476;DHT22;2760;50.000;9.194;2022-08-19T04:16:45;20.20;99.90
5476;DHT22;2760;50.000;9.194;2022-08-19T04:19:14;20.10;99.90
5476;DHT22;2760;50.000;9.194;2022-08-19T04:21:43;20.20;99.90
5476;DHT22;2760;50.000;9.194;2022-08-19T04:24:12;20.20;99.90
5476;DHT22;2760;50.000;9.194;2022-08-19T04:26:40;21.20;99.90
5476;DHT22;2760;50.000;9.194;2022-08-19T04:29:09;20.30;99.90
5476;DHT22;2760;50.000;9.194;2022-08-19T04:31:41;20.40;99.90
5476;DHT22;2760;50.000;9.194;2022-08-19T04:34:10;20.40;99.90
5476;DHT22;2760;50.000;9.194;2022-08-19T04:36:40;20.40;99.90
5476;DHT22;2760;50.000;9.194;2022-08-19T04:39:10;20.40;99.90
5476;DHT22;2760;50.000;9.194;2022-08-19T04:41:37;20.30;99.90
5476;DHT22;2760;50.000;9.194;2022-08-19T04:44:22;20.30;99.90
5476;DHT22;2760;50.000;9.194;2022-08-19T04:46:51;20.30;99.90
5476;DHT22;2760;50.000;9.194;2022-08-19T04:49:19;20.40;99.90
5476;DHT22;2760;50.000;9.194;2022-08-19T04:51:47;20.30;99.90
5476;DHT22;2760;50.000;9.194;2022-08-19T04:54:16;20.40;99.90
5476;DHT22;2760;50.000;9.194;2022-08-19T04:56:48;20.40;99.90
5476;DHT22;2760;50.000;9.194;2022-08-19T04:59:17;20.50;99.90
5476;DHT22;2760;50.000;9.194;2022-08-19T05:01:46;20.40;99.90
5476;DHT22;2760;50.000;9.194;2022-08-19T05:04:19;20.40;99.90
5476;DHT22;2760;50.000;9.194;2022-08-19T05:06:47;20.30;99.90
5476;DHT22;2760;50.000;9.194;2022-08-19T05:09:14;20.30;99.90
5476;DHT22;2760;50.000;9.194;2022-08-19T05:11:43;19.20;99.90
5476;DHT22;2760;50.000;9.194;2022-08-19T05:14:11;20.40;99.90
5476;DHT22;2760;50.000;9.194;2022-08-19T05:16:39;20.30;99.90
5476;DHT22;2760;50.000;9.194;2022-08-19T05:19:07;20.30;99.90
5476;DHT22;2760;50.000;9.194;2022-08-19T05:21:55;20.30;99.90
5476;DHT22;2760;50.000;9.194;2022-08-19T05:24:39;20.40;99.90
5476;DHT22;2760;50.000;9.194;2022-08-19T05:27:06;20.30;99.90
5476;DHT22;2760;50.000;9.194;2022-08-19T05:29:34;20.40;99.90
5476;DHT22;2760;50.000;9.194;2022-08-19T05:32:03;20.40;99.90
5476;DHT22;2760;50.000;9.194;2022-08-19T05:34:30;20.40;99.90
5476;DHT22;2760;50.000;9.194;2022-08-19T05:37:01;20.60;99.90
5476;DHT22;2760;50.000;9.194;2022-08-19T05:39:34;20.60;99.90
5476;DHT22;2760;50.000;9.194;2022-08-19T05:42:03;20.60;99.90
5476;DHT22;2760;50.000;9.194;2022-08-19T05:44:34;20.60;99.90
5476;DHT22;2760;50.000;9.194;2022-08-19T05:47:04;20.70;99.90
5476;DHT22;2760;50.000;9.194;2022-08-19T05:49:33;20.70;99.90
5476;DHT22;2760;50.000;9.194;2022-08-19T05:52:03;20.70;99.90
5476;DHT22;2760;50.000;9.194;2022-08-19T05:54:31;20.70;99.90
5476;DHT22;2760;50.000;9.194;2022-08-19T05:56:58;20.80;99.90
5476;DHT22;2760;50.000;9.194;2022-08-19T05:59:25;20.90;99.90
5476;DHT22;2760;50.000;9.194;2022-08-19T06:01:52;19.40;99.90
5476;DHT22;2760;50.000;9.194;2022-08-19T06:04:23;20.80;99.90
5476;DHT22;2760;50.000;9.194;2022-08-19T06:06:52;20.90;99.90
5476;DHT22;2760;50.000;9.194;2022-08-19T06:09:21;21.00;99.90
5476;DHT22;2760;50.000;9.194;2022-08-19T06:11:50;20.90;99.90
5476;DHT22;2760;50.000;9.194;2022-08-19T06:14:22;20.90;99.90
5476;DHT22;2760;50.000;9.194;2022-08-19T06:16:50;21.00;99.90
5476;DHT22;2760;50.000;9.194;2022-08-19T06:19:20;21.00;99.90
5476;DHT22;2760;50.000;9.194;2022-08-19T06:21:50;21.00;99.90
5476;DHT22;2760;50.000;9.194;2022-08-19T06:24:19;21.00;99.90
5476;DHT22;2760;50.000;9.194;2022-08-19T06:26:52;21.10;99.90
5476;DHT22;2760;50.000;9.194;2022-08-19T06:29:20;21.10;99.90
5476;DHT22;2760;50.000;9.194;2022-08-19T06:31:49;21.10;99.90
5476;DHT22;2760;50.000;9.194;2022-08-19T06:34:16;21.20;99.90
5476;DHT22;2760;50.000;9.194;2022-08-19T06:36:47;21.10;99.90
5476;DHT22;2760;50.000;9.194;2022-08-19T06:39:15;21.10;99.90
5476;DHT22;2760;50.000;9.194;2022-08-19T06:41:45;21.10;99.90
5476;DHT22;2760;50.000;9.194;2022-08-19T06:44:17;21.10;99.90
5476;DHT22;2760;50.000;9.194;2022-08-19T06:46:45;21.20;99.90
5476;DHT22;2760;50.000;9.194;2022-08-19T06:49:14;21.30;99.90
5476;DHT22;2760;50.000;9.194;2022-08-19T06:51:41;21.20;99.90
5476;DHT22;2760;50.000;9.194;2022-08-19T06:54:09;21.20;99.90
5476;DHT22;2760;50.000;9.194;2022-08-19T06:56:37;21.20;99.90
5476;DHT22;2760;50.000;9.194;2022-08-19T06:59:08;21.30;99.90
5476;DHT22;2760;50.000;9.194;2022-08-19T07:01:39;21.40;99.90
5476;DHT22;2760;50.000;9.194;2022-08-19T07:04:07;21.30;99.90
5476;DHT22;2760;50.000;9.194;2022-08-19T07:06:35;21.40;99.90
5476;DHT22;2760;50.000;9.194;2022-08-19T07:09:03;21.40;99.90
5476;DHT22;2760;50.000;9.194;2022-08-19T07:11:30;21.40;99.90
5476;DHT22;2760;50.000;9.194;2022-08-19T07:13:58;21.40;99.90
5476;DHT22;2760;50.000;9.194;2022-08-19T07:16:25;21.50;99.90
5476;DHT22;2760;50.000;9.194;2022-08-19T07:18:55;21.50;99.90
5476;DHT22;2760;50.000;9.194;2022-08-19T07:21:23;21.40;99.90
5476;DHT22;2760;50.000;9.194;2022-08-19T07:23:52;21.40;99.90
5476;DHT22;2760;50.000;9.194;2022-08-19T07:26:22;21.40;99.90
5476;DHT22;2760;50.000;9.194;2022-08-19T07:28:50;21.50;99.90
5476;DHT22;2760;50.000;9.194;2022-08-19T07:31:19;21.60;99.90
5476;DHT22;2760;50.000;9.194;2022-08-19T07:33:48;21.60;99.90
5476;DHT22;2760;50.000;9.194;2022-08-19T07:36:19;21.70;99.90
5476;DHT22;2760;50.000;9.194;2022-08-19T07:38:48;21.60;99.90
5476;DHT22;2760;50.000;9.194;2022-08-19T07:41:19;21.70;99.90
5476;DHT22;2760;50.000;9.194;2022-08-19T07:43:47;21.70;99.90
5476;DHT22;2760;50.000;9.194;2022-08-19T07:46:15;21.70;99.90
5476;DHT22;2760;50.000;9.194;2022-08-19T07:48:44;21.70;99.90
5476;DHT22;2760;50.000;9.194;2022-08-19T07:51:13;21.70;99.90
5476;DHT22;2760;50.000;9.194;2022-08-19T07:53:42;21.80;99.90
5476;DHT22;2760;50.000;9.194;2022-08-19T07:56:11;21.70;99.90
5476;DHT22;2760;50.000;9.194;2022-08-19T07:58:42;21.90;99.90
5476;DHT22;2760;50.000;9.194;2022-08-19T08:01:11;22.00;99.90
5476;DHT22;2760;50.000;9.194;2022-08-19T08:03:39;22.10;99.90
5476;DHT22;2760;50.000;9.194;2022-08-19T08:06:24;22.00;99.90
5476;DHT22;2760;50.000;9.194;2022-08-19T08:09:11;22.00;99.90
5476;DHT22;2760;50.000;9.194;2022-08-19T08:11:43;22.20;99.90
5476;DHT22;2760;50.000;9.194;2022-08-19T08:14:16;22.20;99.90
5476;DHT22;2760;50.000;9.194;2022-08-19T08:16:44;22.40;99.90
5476;DHT22;2760;50.000;9.194;2022-08-19T08:19:13;22.90;99.90
5476;DHT22;2760;50.000;9.194;2022-08-19T08:21:41;22.40;99.90
5476;DHT22;2760;50.000;9.194;2022-08-19T08:24:11;22.60;99.90
5476;DHT22;2760;50.000;9.194;2022-08-19T08:26:38;22.50;99.90
5476;DHT22;2760;50.000;9.194;2022-08-19T08:29:05;22.80;99.90
5476;DHT22;2760;50.000;9.194;2022-08-19T08:31:33;22.80;99.90
5476;DHT22;2760;50.000;9.194;2022-08-19T08:34:00;22.70;99.90
5476;DHT22;2760;50.000;9.194;2022-08-19T08:36:28;22.90;99.90
5476;DHT22;2760;50.000;9.194;2022-08-19T08:38:59;23.10;99.90
5476;DHT22;2760;50.000;9.194;2022-08-19T08:41:31;23.30;99.90
5476;DHT22;2760;50.000;9.194;2022-08-19T08:44:02;23.50;99.90
5476;DHT22;2760;50.000;9.194;2022-08-19T08:46:35;23.00;99.90
5476;DHT22;2760;50.000;9.194;2022-08-19T08:49:15;23.20;99.90
5476;DHT22;2760;50.000;9.194;2022-08-19T08:51:50;23.20;99.90
5476;DHT22;2760;50.000;9.194;2022-08-19T08:54:20;23.40;99.90
5476;DHT22;2760;50.000;9.194;2022-08-19T08:56:53;23.50;99.90
5476;DHT22;2760;50.000;9.194;2022-08-19T08:59:23;23.60;99.90
5476;DHT22;2760;50.000;9.194;2022-08-19T09:01:51;23.70;99.90
5476;DHT22;2760;50.000;9.194;2022-08-19T09:04:18;23.90;99.90
5476;DHT22;2760;50.000;9.194;2022-08-19T09:06:52;23.90;99.90
5476;DHT22;2760;50.000;9.194;2022-08-19T09:09:29;23.70;99.90
5476;DHT22;2760;50.000;9.194;2022-08-19T09:12:05;23.50;99.90
5476;DHT22;2760;50.000;9.194;2022-08-19T09:14:44;23.40;99.90
5476;DHT22;2760;50.000;9.194;2022-08-19T09:17:13;23.50;99.90
5476;DHT22;2760;50.000;9.194;2022-08-19T09:19:50;23.60;99.90
5476;DHT22;2760;50.000;9.194;2022-08-19T09:22:19;23.80;99.90
5476;DHT22;2760;50.000;9.194;2022-08-19T09:24:48;24.00;99.90
5476;DHT22;2760;50.000;9.194;2022-08-19T09:27:17;24.20;99.90
5476;DHT22;2760;50.000;9.194;2022-08-19T09:29:45;24.10;99.90
5476;DHT22;2760;50.000;9.194;2022-08-19T09:32:13;24.20;99.90
5476;DHT22;2760;50.000;9.194;2022-08-19T09:34:40;24.40;99.90
5476;DHT22;2760;50.000;9.194;2022-08-19T09:37:08;24.60;99.90
5476;DHT22;2760;50.000;9.194;2022-08-19T09:39:35;24.50;99.90
5476;DHT22;2760;50.000;9.194;2022-08-19T09:42:03;23.00;99.90
5476;DHT22;2760;50.000;9.194;2022-08-19T09:44:31;24.20;99.90
5476;DHT22;2760;50.000;9.194;2022-08-19T09:46:59;24.40;99.90
5476;DHT22;2760;50.000;9.194;2022-08-19T09:49:27;24.50;99.90
5476;DHT22;2760;50.000;9.194;2022-08-19T09:51:54;25.90;99.90
5476;DHT22;2760;50.000;9.194;2022-08-19T09:54:22;24.60;99.90
5476;DHT22;2760;50.000;9.194;2022-08-19T09:56:49;24.60;99.90
5476;DHT22;2760;50.000;9.194;2022-08-19T09:59:21;24.60;99.90
5476;DHT22;2760;50.000;9.194;2022-08-19T10:01:50;24.50;99.90
5476;DHT22;2760;50.000;9.194;2022-08-19T10:04:17;24.60;99.90
5476;DHT22;2760;50.000;9.194;2022-08-19T10:06:47;24.90;99.90
5476;DHT22;2760;50.000;9.194;2022-08-19T10:09:16;25.20;99.90
5476;DHT22;2760;50.000;9.194;2022-08-19T10:11:44;25.40;99.90
5476;DHT22;2760;50.000;9.194;2022-08-19T10:14:13;25.50;99.90
5476;DHT22;2760;50.000;9.194;2022-08-19T10:16:40;25.50;99.90
5476;DHT22;2760;50.000;9.194;2022-08-19T10:19:09;25.50;99.90
5476;DHT22;2760;50.000;9.194;2022-08-19T10:21:37;25.00;99.90
5476;DHT22;2760;50.000;9.194;2022-08-19T10:24:05;25.30;99.90
5476;DHT22;2760;50.000;9.194;2022-08-19T10:26:34;25.20;99.90
5476;DHT22;2760;50.000;9.194;2022-08-19T10:29:03;25.20;99.90
5476;DHT22;2760;50.000;9.194;2022-08-19T10:31:32;25.00;99.90
5476;DHT22;2760;50.000;9.194;2022-08-19T10:34:01;25.10;99.90
5476;DHT22;2760;50.000;9.194;2022-08-19T10:36:31;25.00;99.90
5476;DHT22;2760;50.000;9.194;2022-08-19T10:39:00;25.20;99.90
5476;DHT22;2760;50.000;9.194;2022-08-19T10:41:30;25.30;99.90
5476;DHT22;2760;50.000;9.194;2022-08-19T10:44:00;25.50;99.90
5476;DHT22;2760;50.000;9.194;2022-08-19T10:46:28;26.10;99.90
5476;DHT22;2760;50.000;9.194;2022-08-19T10:48:58;26.10;99.90
5476;DHT22;2760;50.000;9.194;2022-08-19T10:51:26;26.30;99.90
5476;DHT22;2760;50.000;9.194;2022-08-19T10:54:12;26.90;99.90
5476;DHT22;2760;50.000;9.194;2022-08-19T10:56:39;27.90;98.60
5476;DHT22;2760;50.000;9.194;2022-08-19T10:59:18;27.80;97.90
5476;DHT22;2760;50.000;9.194;2022-08-19T11:01:46;27.70;97.60
5476;DHT22;2760;50.000;9.194;2022-08-19T11:04:13;27.80;96.90
5476;DHT22;2760;50.000;9.194;2022-08-19T11:06:43;28.40;96.10
5476;DHT22;2760;50.000;9.194;2022-08-19T11:09:15;28.10;96.00
5476;DHT22;2760;50.000;9.194;2022-08-19T11:11:43;27.50;96.20
5476;DHT22;2760;50.000;9.194;2022-08-19T11:14:12;27.80;96.20
5476;DHT22;2760;50.000;9.194;2022-08-19T11:16:40;27.90;96.10
5476;DHT22;2760;50.000;9.194;2022-08-19T11:19:10;27.90;95.80
5476;DHT22;2760;50.000;9.194;2022-08-19T11:21:40;27.80;95.70
5476;DHT22;2760;50.000;9.194;2022-08-19T11:24:10;27.60;96.20
5476;DHT22;2760;50.000;9.194;2022-08-19T11:26:40;27.00;96.00
5476;DHT22;2760;50.000;9.194;2022-08-19T11:29:09;27.70;96.40
5476;DHT22;2760;50.000;9.194;2022-08-19T11:31:43;27.40;96.70
5476;DHT22;2760;50.000;9.194;2022-08-19T11:34:14;27.40;96.70
5476;DHT22;2760;50.000;9.194;2022-08-19T11:36:43;27.00;96.20
5476;DHT22;2760;50.000;9.194;2022-08-19T11:39:14;26.90;97.00
5476;DHT22;2760;50.000;9.194;2022-08-19T11:41:43;27.20;97.10
5476;DHT22;2760;50.000;9.194;2022-08-19T11:44:10;27.40;96.30
5476;DHT22;2760;50.000;9.194;2022-08-19T11:46:39;27.60;96.40
5476;DHT22;2760;50.000;9.194;2022-08-19T11:49:07;27.10;95.50
5476;DHT22;2760;50.000;9.194;2022-08-19T11:51:35;28.80;95.60
5476;DHT22;2760;50.000;9.194;2022-08-19T11:54:05;29.30;94.50
5476;DHT22;2760;50.000;9.194;2022-08-19T11:56:32;29.70;94.50
5476;DHT22;2760;50.000;9.194;2022-08-19T11:59:01;29.30;93.60
5476;DHT22;2760;50.000;9.194;2022-08-19T12:01:28;28.60;94.20
5476;DHT22;2760;50.000;9.194;2022-08-19T12:03:56;28.20;94.20
5476;DHT22;2760;50.000;9.194;2022-08-19T12:06:26;28.90;94.30
5476;DHT22;2760;50.000;9.194;2022-08-19T12:08:55;29.40;93.40
5476;DHT22;2760;50.000;9.194;2022-08-19T12:11:22;27.90;93.50
5476;DHT22;2760;50.000;9.194;2022-08-19T12:13:50;28.90;92.30
5476;DHT22;2760;50.000;9.194;2022-08-19T12:16:21;30.00;92.60
5476;DHT22;2760;50.000;9.194;2022-08-19T12:18:49;30.30;92.00
5476;DHT22;2760;50.000;9.194;2022-08-19T12:21:19;30.50;91.40
5476;DHT22;2760;50.000;9.194;2022-08-19T12:23:47;29.20;92.60
5476;DHT22;2760;50.000;9.194;2022-08-19T12:26:15;28.80;93.30
5476;DHT22;2760;50.000;9.194;2022-08-19T12:28:43;28.80;93.20
5476;DHT22;2760;50.000;9.194;2022-08-19T12:31:10;28.70;93.50
5476;DHT22;2760;50.000;9.194;2022-08-19T12:33:39;29.30;93.30
5476;DHT22;2760;50.000;9.194;2022-08-19T12:36:09;29.50;93.00
5476;DHT22;2760;50.000;9.194;2022-08-19T12:38:38;30.00;91.80
5476;DHT22;2760;50.000;9.194;2022-08-19T12:41:08;30.40;91.60
5476;DHT22;2760;50.000;9.194;2022-08-19T12:43:36;30.80;91.70
5476;DHT22;2760;50.000;9.194;2022-08-19T12:46:04;30.70;91.10
5476;DHT22;2760;50.000;9.194;2022-08-19T12:48:31;30.60;90.80
5476;DHT22;2760;50.000;9.194;2022-08-19T12:51:01;30.30;90.70
5476;DHT22;2760;50.000;9.194;2022-08-19T12:53:32;30.20;90.70
5476;DHT22;2760;50.000;9.194;2022-08-19T12:56:01;29.50;91.20
5476;DHT22;2760;50.000;9.194;2022-08-19T12:58:29;29.00;91.90
5476;DHT22;2760;50.000;9.194;2022-08-19T13:01:05;28.70;92.60
5476;DHT22;2760;50.000;9.194;2022-08-19T13:03:32;28.90;92.40
5476;DHT22;2760;50.000;9.194;2022-08-19T13:06:01;28.80;92.50
5476;DHT22;2760;50.000;9.194;2022-08-19T13:08:28;28.20;92.40
5476;DHT22;2760;50.000;9.194;2022-08-19T13:10:55;28.20;92.70
5476;DHT22;2760;50.000;9.194;2022-08-19T13:13:24;28.00;93.20
5476;DHT22;2760;50.000;9.194;2022-08-19T13:15:52;28.20;92.70
5476;DHT22;2760;50.000;9.194;2022-08-19T13:18:38;28.30;92.50
5476;DHT22;2760;50.000;9.194;2022-08-19T13:21:09;26.90;92.30
5476;DHT22;2760;50.000;9.194;2022-08-19T13:23:37;28.30;92.90
5476;DHT22;2760;50.000;9.194;2022-08-19T13:26:06;26.70;91.80
5476;DHT22;2760;50.000;9.194;2022-08-19T13:28:34;27.90;92.20
5476;DHT22;2760;50.000;9.194;2022-08-19T13:31:16;28.10;92.30
5476;DHT22;2760;50.000;9.194;2022-08-19T13:34:01;27.90;92.50
5476;DHT22;2760;50.000;9.194;2022-08-19T13:36:30;26.30;92.20
5476;DHT22;2760;50.000;9.194;2022-08-19T13:38:57;27.80;92.60
5476;DHT22;2760;50.000;9.194;2022-08-19T13:41:24;28.00;92.80
5476;DHT22;2760;50.000;9.194;2022-08-19T13:43:52;28.00;92.60
5476;DHT22;2760;50.000;9.194;2022-08-19T13:46:20;27.70;92.70
5476;DHT22;2760;50.000;9.194;2022-08-19T13:48:47;27.70;93.10
5476;DHT22;2760;50.000;9.194;2022-08-19T13:51:15;27.70;93.00
5476;DHT22;2760;50.000;9.194;2022-08-19T13:53:44;27.60;93.10
5476;DHT22;2760;50.000;9.194;2022-08-19T13:56:13;28.10;93.20
5476;DHT22;2760;50.000;9.194;2022-08-19T13:58:40;28.00;92.90
5476;DHT22;2760;50.000;9.194;2022-08-19T14:01:08;27.90;92.70
5476;DHT22;2760;50.000;9.194;2022-08-19T14:03:36;28.10;92.80
5476;DHT22;2760;50.000;9.194;2022-08-19T14:06:03;28.20;92.70
5476;DHT22;2760;50.000;9.194;2022-08-19T14:08:30;28.30;92.40
5476;DHT22;2760;50.000;9.194;2022-08-19T14:10:59;28.50;92.80
5476;DHT22;2760;50.000;9.194;2022-08-19T14:13:26;28.80;92.20
5476;DHT22;2760;50.000;9.194;2022-08-19T14:15:53;28.90;92.30
5476;DHT22;2760;50.000;9.194;2022-08-19T14:18:21;29.00;92.00
5476;DHT22;2760;50.000;9.194;2022-08-19T14:20:49;29.00;91.80
5476;DHT22;2760;50.000;9.194;2022-08-19T14:23:16;28.60;91.90
5476;DHT22;2760;50.000;9.194;2022-08-19T14:25:43;28.30;92.40
5476;DHT22;2760;50.000;9.194;2022-08-19T14:28:13;28.20;92.20
5476;DHT22;2760;50.000;9.194;2022-08-19T14:30:40;28.20;92.30
5476;DHT22;2760;50.000;9.194;2022-08-19T14:33:07;28.30;92.40
5476;DHT22;2760;50.000;9.194;2022-08-19T14:35:35;28.70;92.30
5476;DHT22;2760;50.000;9.194;2022-08-19T14:38:05;28.80;91.70
5476;DHT22;2760;50.000;9.194;2022-08-19T14:40:33;29.00;91.50
5476;DHT22;2760;50.000;9.194;2022-08-19T14:43:03;28.80;91.50
5476;DHT22;2760;50.000;9.194;2022-08-19T14:45:36;29.00;91.70
5476;DHT22;2760;50.000;9.194;2022-08-19T14:48:04;29.10;90.90
5476;DHT22;2760;50.000;9.194;2022-08-19T14:50:33;29.20;90.70
5476;DHT22;2760;50.000;9.194;2022-08-19T14:53:03;29.60;90.00
5476;DHT22;2760;50.000;9.194;2022-08-19T14:55:30;29.50;89.50
5476;DHT22;2760;50.000;9.194;2022-08-19T14:57:58;29.70;89.00
5476;DHT22;2760;50.000;9.194;2022-08-19T15:00:25;29.80;88.90
5476;DHT22;2760;50.000;9.194;2022-08-19T15:02:54;29.80;89.00
5476;DHT22;2760;50.000;9.194;2022-08-19T15:05:21;29.70;88.50
5476;DHT22;2760;50.000;9.194;2022-08-19T15:07:48;29.40;89.40
5476;DHT22;2760;50.000;9.194;2022-08-19T15:10:15;29.10;90.30
5476;DHT22;2760;50.000;9.194;2022-08-19T15:12:42;28.60;90.30
5476;DHT22;2760;50.000;9.194;2022-08-19T15:15:13;28.60;90.50
5476;DHT22;2760;50.000;9.194;2022-08-19T15:17:43;28.40;90.40
5476;DHT22;2760;50.000;9.194;2022-08-19T15:20:17;28.40;90.70
5476;DHT22;2760;50.000;9.194;2022-08-19T15:22:44;28.40;90.80
5476;DHT22;2760;50.000;9.194;2022-08-19T15:25:14;28.10;90.40
5476;DHT22;2760;50.000;9.194;2022-08-19T15:27:41;28.10;90.70
5476;DHT22;2760;50.000;9.194;2022-08-19T15:30:10;28.00;90.70
5476;DHT22;2760;50.000;9.194;2022-08-19T15:32:41;27.80;90.00
5476;DHT22;2760;50.000;9.194;2022-08-19T15:35:08;28.00;90.00
5476;DHT22;2760;50.000;9.194;2022-08-19T15:37:36;28.00;90.10
5476;DHT22;2760;50.000;9.194;2022-08-19T15:40:04;28.10;89.80
5476;DHT22;2760;50.000;9.194;2022-08-19T15:42:34;28.00;89.70
5476;DHT22;2760;50.000;9.194;2022-08-19T15:45:02;28.00;89.10
5476;DHT22;2760;50.000;9.194;2022-08-19T15:47:29;27.90;89.30
5476;DHT22;2760;50.000;9.194;2022-08-19T15:49:56;27.90;89.10
5476;DHT22;2760;50.000;9.194;2022-08-19T15:52:24;28.00;89.00
5476;DHT22;2760;50.000;9.194;2022-08-19T15:54:53;28.00;89.20
5476;DHT22;2760;50.000;9.194;2022-08-19T15:57:20;28.10;89.20
5476;DHT22;2760;50.000;9.194;2022-08-19T16:00:06;28.10;88.50
5476;DHT22;2760;50.000;9.194;2022-08-19T16:02:51;28.20;88.30
5476;DHT22;2760;50.000;9.194;2022-08-19T16:05:35;28.10;88.40
5476;DHT22;2760;50.000;9.194;2022-08-19T16:08:20;28.20;88.70
5476;DHT22;2760;50.000;9.194;2022-08-19T16:10:48;28.10;88.00
5476;DHT22;2760;50.000;9.194;2022-08-19T16:13:15;27.90;88.20
5476;DHT22;2760;50.000;9.194;2022-08-19T16:15:42;28.00;88.10